sensor_id;sensor_type;location;lat;lon;timestamp;temperature;humidity
8565;DHT22;4320;51.498;6.556;2024-01-16T00:00:34;2.30;99.90
8565;DHT22;4320;51.498;6.556;2024-01-16T00:02:59;2.30;99.90
8565;DHT22;4320;51.498;6.556;2024-01-16T00:05:25;2.30;99.90
8565;DHT22;4320;51.498;6.556;2024-01-16T00:07:51;2.30;99.90
8565;DHT22;4320;51.498;6.556;2024-01-16T00:10:17;2.30;99.90
8565;DHT22;4320;51.498;6.556;2024-01-16T00:12:42;2.30;99.90
8565;DHT22;4320;51.498;6.556;2024-01-16T00:15:08;2.30;99.90
8565;DHT22;4320;51.498;6.556;2024-01-16T00:17:34;2.30;99.90
8565;DHT22;4320;51.498;6.556;2024-01-16T00:20:00;2.20;99.90
8565;DHT22;4320;51.498;6.556;2024-01-16T00:22:29;2.30;99.90
8565;DHT22;4320;51.498;6.556;2024-01-16T00:24:55;2.30;99.90
8565;DHT22;4320;51.498;6.556;2024-01-16T00:27:21;2.30;99.90
8565;DHT22;4320;51.498;6.556;2024-01-16T00:29:47;2.30;99.90
8565;DHT22;4320;51.498;6.556;2024-01-16T00:32:13;2.20;99.90
8565;DHT22;4320;51.498;6.556;2024-01-16T00:34:42;2.30;99.90
8565;DHT22;4320;51.498;6.556;2024-01-16T00:37:07;2.30;99.90
8565;DHT22;4320;51.498;6.556;2024-01-16T00:39:33;2.20;99.90
8565;DHT22;4320;51.498;6.556;2024-01-16T00:41:58;2.20;99.90
8565;DHT22;4320;51.498;6.556;2024-01-16T00:44:24;2.30;99.90
8565;DHT22;4320;51.498;6.556;2024-01-16T00:46:50;2.20;99.90
8565;DHT22;4320;51.498;6.556;2024-01-16T00:49:15;2.30;99.90
8565;DHT22;4320;51.498;6.556;2024-01-16T00:51:41;2.20;99.90
8565;DHT22;4320;51.498;6.556;2024-01-16T00:54:07;2.30;99.90
8565;DHT22;4320;51.498;6.556;2024-01-16T00:56:34;2.20;99.90
8565;DHT22;4320;51.498;6.556;2024-01-16T00:59:00;2.20;99.90
8565;DHT22;4320;51.498;6.556;2024-01-16T01:01:25;2.30;99.90
8565;DHT22;4320;51.498;6.556;2024-01-16T01:03:51;2.20;99.90
8565;DHT22;4320;51.498;6.556;2024-01-16T01:06:17;2.30;99.90
8565;DHT22;4320;51.498;6.556;2024-01-16T01:08:43;2.20;99.90
8565;DHT22;4320;51.498;6.556;2024-01-16T01:11:08;2.20;99.90
8565;DHT22;4320;51.498;6.556;2024-01-16T01:13:34;2.10;99.90
8565;DHT22;4320;51.498;6.556;2024-01-16T01:15:59;2.10;99.90
8565;DHT22;4320;51.498;6.556;2024-01-16T01:18:26;2.20;99.90
8565;DHT22;4320;51.498;6.556;2024-01-16T01:20:51;2.20;99.90
8565;DHT22;4320;51.498;6.556;2024-01-16T01:23:17;2.30;99.90
8565;DHT22;4320;51.498;6.556;2024-01-16T01:25:43;2.30;99.90
8565;DHT22;4320;51.498;6.556;2024-01-16T01:28:09;2.30;99.90
8565;DHT22;4320;51.498;6.556;2024-01-16T01:30:34;2.40;99.90
8565;DHT22;4320;51.498;6.556;2024-01-16T01:33:00;2.40;99.90
8565;DHT22;4320;51.498;6.556;2024-01-16T01:35:26;2.30;99.90
8565;DHT22;4320;51.498;6.556;2024-01-16T01:37:52;2.30;99.90
8565;DHT22;4320;51.498;6.556;2024-01-16T01:40:17;2.30;99.90
8565;DHT22;4320;51.498;6.556;2024-01-16T01:42:43;2.30;99.90
8565;DHT22;4320;51.498;6.556;2024-01-16T01:45:10;2.40;99.90
8565;DHT22;4320;51.498;6.556;2024-01-16T01:47:36;2.40;99.90
8565;DHT22;4320;51.498;6.556;2024-01-16T01:50:02;2.30;99.90
8565;DHT22;4320;51.498;6.556;2024-01-16T01:52:31;2.10;99.90
8565;DHT22;4320;51.498;6.556;2024-01-16T01:54:57;2.10;99.90
8565;DHT22;4320;51.498;6.556;2024-01-16T01:57:23;2.20;99.90
8565;DHT22;4320;51.498;6.556;2024-01-16T01:59:49;2.30;99.90
8565;DHT22;4320;51.498;6.556;2024-01-16T02:02:15;2.20;99.90
8565;DHT22;4320;51.498;6.556;2024-01-16T02:04:43;2.20;99.90
8565;DHT22;4320;51.498;6.556;2024-01-16T02:07:10;2.20;99.90
8565;DHT22;4320;51.498;6.556;2024-01-16T02:09:35;2.20;99.90
8565;DHT22;4320;51.498;6.556;2024-01-16T02:12:01;2.20;99.90
8565;DHT22;4320;51.498;6.556;2024-01-16T02:14:28;2.20;99.90
8565;DHT22;4320;51.498;6.556;2024-01-16T02:16:53;2.40;99.90
8565;DHT22;4320;51.498;6.556;2024-01-16T02:19:19;2.40;99.90
8565;DHT22;4320;51.498;6.556;2024-01-16T02:21:48;2.50;99.90
8565;DHT22;4320;51.498;6.556;2024-01-16T02:24:15;2.30;99.90
8565;DHT22;4320;51.498;6.556;2024-01-16T02:26:42;2.30;99.90
8565;DHT22;4320;51.498;6.556;2024-01-16T02:29:08;2.40;99.90
8565;DHT22;4320;51.498;6.556;2024-01-16T02:31:34;2.30;99.90
8565;DHT22;4320;51.498;6.556;2024-01-16T02:34:00;2.40;99.90
8565;DHT22;4320;51.498;6.556;2024-01-16T02:36:26;2.40;99.90
8565;DHT22;4320;51.498;6.556;2024-01-16T02:38:52;2.40;99.90
8565;DHT22;4320;51.498;6.556;2024-01-16T02:41:18;2.40;99.90
8565;DHT22;4320;51.498;6.556;2024-01-16T02:43:44;2.50;99.90
8565;DHT22;4320;51.498;6.556;2024-01-16T02:46:10;2.50;99.90
8565;DHT22;4320;51.498;6.556;2024-01-16T02:48:36;2.40;99.90
8565;DHT22;4320;51.498;6.556;2024-01-16T02:51:03;2.50;99.90
8565;DHT22;4320;51.498;6.556;2024-01-16T02:53:31;2.50;99.90
8565;DHT22;4320;51.498;6.556;2024-01-16T02:55:57;2.40;99.90
8565;DHT22;4320;51.498;6.556;2024-01-16T02:58:31;2.40;99.90
8565;DHT22;4320;51.498;6.556;2024-01-16T03:00:57;2.30;99.90
8565;DHT22;4320;51.498;6.556;2024-01-16T03:03:23;2.30;99.90
8565;DHT22;4320;51.498;6.556;2024-01-16T03:05:49;2.30;99.90
8565;DHT22;4320;51.498;6.556;2024-01-16T03:08:14;2.30;99.90
8565;DHT22;4320;51.498;6.556;2024-01-16T03:10:40;2.30;99.90
8565;DHT22;4320;51.498;6.556;2024-01-16T03:13:06;2.40;99.90
8565;DHT22;4320;51.498;6.556;2024-01-16T03:15:32;2.40;99.90
8565;DHT22;4320;51.498;6.556;2024-01-16T03:17:58;2.40;99.90
8565;DHT22;4320;51.498;6.556;2024-01-16T03:20:24;2.40;99.90
8565;DHT22;4320;51.498;6.556;2024-01-16T03:22:50;2.40;99.90
8565;DHT22;4320;51.498;6.556;2024-01-16T03:25:19;2.30;99.90
8565;DHT22;4320;51.498;6.556;2024-01-16T03:27:45;2.30;99.90
8565;DHT22;4320;51.498;6.556;2024-01-16T03:30:11;2.30;99.90
8565;DHT22;4320;51.498;6.556;2024-01-16T03:32:37;2.30;99.90
8565;DHT22;4320;51.498;6.556;2024-01-16T03:35:03;2.50;99.90
8565;DHT22;4320;51.498;6.556;2024-01-16T03:37:29;2.50;99.90
8565;DHT22;4320;51.498;6.556;2024-01-16T03:39:55;2.40;99.90
8565;DHT22;4320;51.498;6.556;2024-01-16T03:42:22;2.40;99.90
8565;DHT22;4320;51.498;6.556;2024-01-16T03:44:48;2.40;99.90
8565;DHT22;4320;51.498;6.556;2024-01-16T03:47:13;2.40;99.90
8565;DHT22;4320;51.498;6.556;2024-01-16T03:49:39;2.40;99.90
8565;DHT22;4320;51.498;6.556;2024-01-16T03:52:05;2.30;99.90
8565;DHT22;4320;51.498;6.556;2024-01-16T03:54:30;2.30;99.90
8565;DHT22;4320;51.498;6.556;2024-01-16T03:56:56;2.40;99.90
8565;DHT22;4320;51.498;6.556;2024-01-16T03:59:22;2.30;99.90
8565;DHT22;4320;51.498;6.556;2024-01-16T04:01:47;2.30;99.90
8565;DHT22;4320;51.498;6.556;2024-01-16T04:04:15;2.20;99.90
8565;DHT22;4320;51.498;6.556;2024-01-16T04:06:41;2.30;99.90
8565;DHT22;4320;51.498;6.556;2024-01-16T04:09:07;2.30;99.90
8565;DHT22;4320;51.498;6.556;2024-01-16T04:11:33;2.20;99.90
8565;DHT22;4320;51.498;6.556;2024-01-16T04:14:00;2.30;99.90
8565;DHT22;4320;51.498;6.556;2024-01-16T04:16:25;2.30;99.90
8565;DHT22;4320;51.498;6.556;2024-01-16T04:18:52;2.30;99.90
8565;DHT22;4320;51.498;6.556;2024-01-16T04:21:17;2.30;99.90
8565;DHT22;4320;51.498;6.556;2024-01-16T04:23:43;2.30;99.90
8565;DHT22;4320;51.498;6.556;2024-01-16T04:26:09;2.20;99.90
8565;DHT22;4320;51.498;6.556;2024-01-16T04:28:35;2.30;99.90
8565;DHT22;4320;51.498;6.556;2024-01-16T04:31:03;2.30;99.90
8565;DHT22;4320;51.498;6.556;2024-01-16T04:33:28;2.30;99.90
8565;DHT22;4320;51.498;6.556;2024-01-16T04:35:55;2.30;99.90
8565;DHT22;4320;51.498;6.556;2024-01-16T04:38:21;2.30;99.90
8565;DHT22;4320;51.498;6.556;2024-01-16T04:40:47;2.30;99.90
8565;DHT22;4320;51.498;6.556;2024-01-16T04:43:12;2.30;99.90
8565;DHT22;4320;51.498;6.556;2024-01-16T04:45:38;2.30;99.90
8565;DHT22;4320;51.498;6.556;2024-01-16T04:48:04;2.30;99.90
8565;DHT22;4320;51.498;6.556;2024-01-16T04:50:29;2.40;99.90
8565;DHT22;4320;51.498;6.556;2024-01-16T04:52:58;2.30;99.90
8565;DHT22;4320;51.498;6.556;2024-01-16T04:55:30;2.30;99.90
8565;DHT22;4320;51.498;6.556;2024-01-16T04:57:56;2.30;99.90
8565;DHT22;4320;51.498;6.556;2024-01-16T05:00:22;2.30;99.90
8565;DHT22;4320;51.498;6.556;2024-01-16T05:02:48;2.20;99.90
8565;DHT22;4320;51.498;6.556;2024-01-16T05:05:14;2.30;99.90
8565;DHT22;4320;51.498;6.556;2024-01-16T05:07:40;2.30;99.90
8565;DHT22;4320;51.498;6.556;2024-01-16T05:10:06;2.30;99.90
8565;DHT22;4320;51.498;6.556;2024-01-16T05:12:34;2.30;99.90
8565;DHT22;4320;51.498;6.556;2024-01-16T05:15:00;2.30;99.90
8565;DHT22;4320;51.498;6.556;2024-01-16T05:17:25;2.30;99.90
8565;DHT22;4320;51.498;6.556;2024-01-16T05:19:51;2.20;99.90
8565;DHT22;4320;51.498;6.556;2024-01-16T05:22:16;2.20;99.90
8565;DHT22;4320;51.498;6.556;2024-01-16T05:24:42;2.30;99.90
8565;DHT22;4320;51.498;6.556;2024-01-16T05:27:07;2.30;99.90
8565;DHT22;4320;51.498;6.556;2024-01-16T05:29:34;2.20;99.90
8565;DHT22;4320;51.498;6.556;2024-01-16T05:32:03;2.30;99.90
8565;DHT22;4320;51.498;6.556;2024-01-16T05:34:29;2.30;99.90
8565;DHT22;4320;51.498;6.556;2024-01-16T05:36:54;2.30;99.90
8565;DHT22;4320;51.498;6.556;2024-01-16T05:39:20;2.20;99.90
8565;DHT22;4320;51.498;6.556;2024-01-16T05:41:46;2.20;99.90
8565;DHT22;4320;51.498;6.556;2024-01-16T05:44:12;2.10;99.90
8565;DHT22;4320;51.498;6.556;2024-01-16T05:46:37;2.10;99.90
8565;DHT22;4320;51.498;6.556;2024-01-16T05:49:03;2.20;99.90
8565;DHT22;4320;51.498;6.556;2024-01-16T05:51:29;2.20;99.90
8565;DHT22;4320;51.498;6.556;2024-01-16T05:53:55;2.20;99.90
8565;DHT22;4320;51.498;6.556;2024-01-16T05:56:21;2.10;99.90
8565;DHT22;4320;51.498;6.556;2024-01-16T05:58:46;2.10;99.90
8565;DHT22;4320;51.498;6.556;2024-01-16T06:01:12;2.10;99.90
8565;DHT22;4320;51.498;6.556;2024-01-16T06:03:41;2.20;99.90
8565;DHT22;4320;51.498;6.556;2024-01-16T06:06:07;2.20;99.90
8565;DHT22;4320;51.498;6.556;2024-01-16T06:08:33;2.20;99.90
8565;DHT22;4320;51.498;6.556;2024-01-16T06:10:59;2.20;99.90
8565;DHT22;4320;51.498;6.556;2024-01-16T06:13:25;2.20;99.90
8565;DHT22;4320;51.498;6.556;2024-01-16T06:15:50;2.10;99.90
8565;DHT22;4320;51.498;6.556;2024-01-16T06:18:16;2.20;99.90
8565;DHT22;4320;51.498;6.556;2024-01-16T06:20:41;2.20;99.90
8565;DHT22;4320;51.498;6.556;2024-01-16T06:23:07;2.20;99.90
8565;DHT22;4320;51.498;6.556;2024-01-16T06:25:33;2.20;99.90
8565;DHT22;4320;51.498;6.556;2024-01-16T06:27:58;2.20;99.90
8565;DHT22;4320;51.498;6.556;2024-01-16T06:30:24;2.10;99.90
8565;DHT22;4320;51.498;6.556;2024-01-16T06:32:49;2.20;99.90
8565;DHT22;4320;51.498;6.556;2024-01-16T06:35:16;2.20;99.90
8565;DHT22;4320;51.498;6.556;2024-01-16T06:37:42;2.20;99.90
8565;DHT22;4320;51.498;6.556;2024-01-16T06:40:08;2.10;99.90
8565;DHT22;4320;51.498;6.556;2024-01-16T06:42:34;2.10;99.90
8565;DHT22;4320;51.498;6.556;2024-01-16T06:45:01;2.20;99.90
8565;DHT22;4320;51.498;6.556;2024-01-16T06:47:27;2.20;99.90
8565;DHT22;4320;51.498;6.556;2024-01-16T06:49:53;2.00;99.90
8565;DHT22;4320;51.498;6.556;2024-01-16T06:52:19;2.10;99.90
8565;DHT22;4320;51.498;6.556;2024-01-16T06:54:45;2.00;99.90
8565;DHT22;4320;51.498;6.556;2024-01-16T06:57:11;2.00;99.90
8565;DHT22;4320;51.498;6.556;2024-01-16T06:59:36;2.00;99.90
8565;DHT22;4320;51.498;6.556;2024-01-16T07:02:02;2.00;99.90
8565;DHT22;4320;51.498;6.556;2024-01-16T07:04:28;2.10;99.90
8565;DHT22;4320;51.498;6.556;2024-01-16T07:06:54;2.00;99.90
8565;DHT22;4320;51.498;6.556;2024-01-16T07:09:20;2.10;99.90
8565;DHT22;4320;51.498;6.556;2024-01-16T07:11:47;2.00;99.90
8565;DHT22;4320;51.498;6.556;2024-01-16T07:14:12;1.90;99.90
8565;DHT22;4320;51.498;6.556;2024-01-16T07:16:38;2.00;99.90
8565;DHT22;4320;51.498;6.556;2024-01-16T07:19:03;2.00;99.90
8565;DHT22;4320;51.498;6.556;2024-01-16T07:21:29;2.00;99.90
8565;DHT22;4320;51.498;6.556;2024-01-16T07:23:55;1.90;99.90
8565;DHT22;4320;51.498;6.556;2024-01-16T07:26:21;1.80;99.90
8565;DHT22;4320;51.498;6.556;2024-01-16T07:28:47;1.80;99.90
8565;DHT22;4320;51.498;6.556;2024-01-16T07:31:15;1.80;99.90
8565;DHT22;4320;51.498;6.556;2024-01-16T07:33:44;1.80;99.90
8565;DHT22;4320;51.498;6.556;2024-01-16T07:36:11;1.90;99.90
8565;DHT22;4320;51.498;6.556;2024-01-16T07:38:37;1.80;99.90
8565;DHT22;4320;51.498;6.556;2024-01-16T07:41:03;1.70;99.90
8565;DHT22;4320;51.498;6.556;2024-01-16T07:43:29;1.70;99.90
8565;DHT22;4320;51.498;6.556;2024-01-16T07:45:55;1.80;99.90
8565;DHT22;4320;51.498;6.556;2024-01-16T07:48:21;1.70;99.90
8565;DHT22;4320;51.498;6.556;2024-01-16T07:50:48;1.80;99.90
8565;DHT22;4320;51.498;6.556;2024-01-16T07:53:14;1.80;99.90
8565;DHT22;4320;51.498;6.556;2024-01-16T07:55:41;1.80;99.90
8565;DHT22;4320;51.498;6.556;2024-01-16T07:58:06;1.90;99.90
8565;DHT22;4320;51.498;6.556;2024-01-16T08:00:32;1.90;99.90
8565;DHT22;4320;51.498;6.556;2024-01-16T08:02:58;1.90;99.90
8565;DHT22;4320;51.498;6.556;2024-01-16T08:05:23;1.90;99.90
8565;DHT22;4320;51.498;6.556;2024-01-16T08:07:51;1.90;99.90
8565;DHT22;4320;51.498;6.556;2024-01-16T08:10:17;2.00;99.90
8565;DHT22;4320;51.498;6.556;2024-01-16T08:12:42;2.00;99.90
8565;DHT22;4320;51.498;6.556;2024-01-16T08:15:09;2.00;99.90
8565;DHT22;4320;51.498;6.556;2024-01-16T08:17:35;1.90;99.90
8565;DHT22;4320;51.498;6.556;2024-01-16T08:20:00;1.90;99.90
8565;DHT22;4320;51.498;6.556;2024-01-16T08:22:26;2.00;99.90
8565;DHT22;4320;51.498;6.556;2024-01-16T08:24:51;2.00;99.90
8565;DHT22;4320;51.498;6.556;2024-01-16T08:27:19;1.90;99.90
8565;DHT22;4320;51.498;6.556;2024-01-16T08:29:44;1.80;99.90
8565;DHT22;4320;51.498;6.556;2024-01-16T08:32:10;1.90;99.90
8565;DHT22;4320;51.498;6.556;2024-01-16T08:34:35;2.00;99.90
8565;DHT22;4320;51.498;6.556;2024-01-16T08:37:01;2.10;99.90
8565;DHT22;4320;51.498;6.556;2024-01-16T08:39:27;2.00;99.90
8565;DHT22;4320;51.498;6.556;2024-01-16T08:41:54;2.00;99.90
8565;DHT22;4320;51.498;6.556;2024-01-16T08:44:19;2.00;99.90
8565;DHT22;4320;51.498;6.556;2024-01-16T08:46:45;2.00;99.90
8565;DHT22;4320;51.498;6.556;2024-01-16T08:49:11;2.00;99.90
8565;DHT22;4320;51.498;6.556;2024-01-16T08:51:37;2.10;99.90
8565;DHT22;4320;51.498;6.556;2024-01-16T08:54:02;2.00;99.90
8565;DHT22;4320;51.498;6.556;2024-01-16T08:56:28;2.10;99.90
8565;DHT22;4320;51.498;6.556;2024-01-16T08:58:54;2.10;99.90
8565;DHT22;4320;51.498;6.556;2024-01-16T09:01:19;2.20;99.90
8565;DHT22;4320;51.498;6.556;2024-01-16T09:03:46;2.10;99.90
8565;DHT22;4320;51.498;6.556;2024-01-16T09:06:12;2.20;99.90
8565;DHT22;4320;51.498;6.556;2024-01-16T09:08:38;2.10;99.90
8565;DHT22;4320;51.498;6.556;2024-01-16T09:11:04;2.10;99.90
8565;DHT22;4320;51.498;6.556;2024-01-16T09:13:29;2.10;99.90
8565;DHT22;4320;51.498;6.556;2024-01-16T09:15:55;2.00;99.90
8565;DHT22;4320;51.498;6.556;2024-01-16T09:18:20;2.00;99.90
8565;DHT22;4320;51.498;6.556;2024-01-16T09:20:46;2.00;99.90
8565;DHT22;4320;51.498;6.556;2024-01-16T09:23:12;2.10;99.90
8565;DHT22;4320;51.498;6.556;2024-01-16T09:25:38;2.10;99.90
8565;DHT22;4320;51.498;6.556;2024-01-16T09:28:03;2.10;99.50
8565;DHT22;4320;51.498;6.556;2024-01-16T09:30:29;2.20;98.40
8565;DHT22;4320;51.498;6.556;2024-01-16T09:32:55;2.20;97.30
8565;DHT22;4320;51.498;6.556;2024-01-16T09:35:20;2.20;94.30
8565;DHT22;4320;51.498;6.556;2024-01-16T09:37:47;2.10;91.60
8565;DHT22;4320;51.498;6.556;2024-01-16T09:40:13;2.10;90.00
8565;DHT22;4320;51.498;6.556;2024-01-16T09:42:39;2.10;89.20
8565;DHT22;4320;51.498;6.556;2024-01-16T09:45:07;2.10;87.10
8565;DHT22;4320;51.498;6.556;2024-01-16T09:47:34;2.20;85.30
8565;DHT22;4320;51.498;6.556;2024-01-16T09:50:01;2.20;82.20
8565;DHT22;4320;51.498;6.556;2024-01-16T09:52:28;2.20;78.60
8565;DHT22;4320;51.498;6.556;2024-01-16T09:54:54;2.20;78.80
8565;DHT22;4320;51.498;6.556;2024-01-16T09:57:24;2.30;77.70
8565;DHT22;4320;51.498;6.556;2024-01-16T09:59:51;2.40;76.50
8565;DHT22;4320;51.498;6.556;2024-01-16T10:02:19;2.40;74.00
8565;DHT22;4320;51.498;6.556;2024-01-16T10:04:45;2.40;72.50
8565;DHT22;4320;51.498;6.556;2024-01-16T10:07:12;2.40;69.50
8565;DHT22;4320;51.498;6.556;2024-01-16T10:09:39;2.60;67.90
8565;DHT22;4320;51.498;6.556;2024-01-16T10:12:06;2.60;62.90
8565;DHT22;4320;51.498;6.556;2024-01-16T10:14:32;2.80;60.80
8565;DHT22;4320;51.498;6.556;2024-01-16T10:17:00;2.80;58.40
8565;DHT22;4320;51.498;6.556;2024-01-16T10:19:29;2.70;52.00
8565;DHT22;4320;51.498;6.556;2024-01-16T10:22:07;2.80;47.20
8565;DHT22;4320;51.498;6.556;2024-01-16T10:24:32;2.70;44.10
8565;DHT22;4320;51.498;6.556;2024-01-16T10:27:01;2.70;42.20
8565;DHT22;4320;51.498;6.556;2024-01-16T10:29:30;2.80;43.80
8565;DHT22;4320;51.498;6.556;2024-01-16T10:31:58;2.90;40.40
8565;DHT22;4320;51.498;6.556;2024-01-16T10:34:24;3.00;36.10
8565;DHT22;4320;51.498;6.556;2024-01-16T10:36:52;3.10;34.60
8565;DHT22;4320;51.498;6.556;2024-01-16T10:39:18;3.20;30.70
8565;DHT22;4320;51.498;6.556;2024-01-16T10:41:59;3.40;27.60
8565;DHT22;4320;51.498;6.556;2024-01-16T10:44:25;3.40;22.50
8565;DHT22;4320;51.498;6.556;2024-01-16T10:47:08;3.50;20.60
8565;DHT22;4320;51.498;6.556;2024-01-16T10:49:34;3.70;17.90
8565;DHT22;4320;51.498;6.556;2024-01-16T10:52:00;3.90;14.60
8565;DHT22;4320;51.498;6.556;2024-01-16T10:54:26;3.90;10.20
8565;DHT22;4320;51.498;6.556;2024-01-16T10:56:53;4.10;5.70
8565;DHT22;4320;51.498;6.556;2024-01-16T11:02:05;5.40;1.00
8565;DHT22;4320;51.498;6.556;2024-01-16T11:04:35;6.30;1.00
8565;DHT22;4320;51.498;6.556;2024-01-16T11:07:03;6.90;1.00
8565;DHT22;4320;51.498;6.556;2024-01-16T11:09:31;7.40;1.00
8565;DHT22;4320;51.498;6.556;2024-01-16T11:11:57;7.40;1.00
8565;DHT22;4320;51.498;6.556;2024-01-16T11:14:25;7.40;1.00
8565;DHT22;4320;51.498;6.556;2024-01-16T11:16:51;7.30;1.00
8565;DHT22;4320;51.498;6.556;2024-01-16T11:19:19;7.50;1.00
8565;DHT22;4320;51.498;6.556;2024-01-16T11:21:45;7.50;1.00
8565;DHT22;4320;51.498;6.556;2024-01-16T11:24:12;6.90;1.00
8565;DHT22;4320;51.498;6.556;2024-01-16T11:26:41;6.00;1.00
8565;DHT22;4320;51.498;6.556;2024-01-16T11:31:55;5.60;1.00
8565;DHT22;4320;51.498;6.556;2024-01-16T11:37:13;6.10;1.00
8565;DHT22;4320;51.498;6.556;2024-01-16T11:39:38;6.00;1.00
8565;DHT22;4320;51.498;6.556;2024-01-16T11:42:06;5.80;1.00
8565;DHT22;4320;51.498;6.556;2024-01-16T11:44:49;5.70;1.00
8565;DHT22;4320;51.498;6.556;2024-01-16T11:47:22;6.30;1.00
8565;DHT22;4320;51.498;6.556;2024-01-16T11:50:07;6.40;1.00
8565;DHT22;4320;51.498;6.556;2024-01-16T11:55:26;6.40;1.00
8565;DHT22;4320;51.498;6.556;2024-01-16T12:00:40;6.20;1.00
8565;DHT22;4320;51.498;6.556;2024-01-16T12:03:08;6.00;1.00
8565;DHT22;4320;51.498;6.556;2024-01-16T12:05:34;5.90;1.00
8565;DHT22;4320;51.498;6.556;2024-01-16T12:08:00;6.10;1.00
8565;DHT22;4320;51.498;6.556;2024-01-16T12:10:29;6.20;1.00
8565;DHT22;4320;51.498;6.556;2024-01-16T12:13:01;6.00;1.00
8565;DHT22;4320;51.498;6.556;2024-01-16T12:15:27;6.20;1.00
8565;DHT22;4320;51.498;6.556;2024-01-16T12:20:19;5.90;1.00
8565;DHT22;4320;51.498;6.556;2024-01-16T12:22:55;5.70;1.00
8565;DHT22;4320;51.498;6.556;2024-01-16T12:25:21;5.10;1.00
8565;DHT22;4320;51.498;6.556;2024-01-16T12:30:36;5.20;1.00
8565;DHT22;4320;51.498;6.556;2024-01-16T12:33:11;5.20;1.00
8565;DHT22;4320;51.498;6.556;2024-01-16T12:35:44;4.80;1.00
8565;DHT22;4320;51.498;6.556;2024-01-16T12:38:14;4.90;1.00
8565;DHT22;4320;51.498;6.556;2024-01-16T12:40:50;5.10;1.00
8565;DHT22;4320;51.498;6.556;2024-01-16T12:43:19;5.20;1.00
8565;DHT22;4320;51.498;6.556;2024-01-16T12:45:45;4.90;1.00
8565;DHT22;4320;51.498;6.556;2024-01-16T12:48:11;5.20;1.00
8565;DHT22;4320;51.498;6.556;2024-01-16T12:50:37;5.40;1.00
8565;DHT22;4320;51.498;6.556;2024-01-16T12:55:36;5.80;1.00
8565;DHT22;4320;51.498;6.556;2024-01-16T12:58:35;5.70;1.00
8565;DHT22;4320;51.498;6.556;2024-01-16T13:01:20;5.30;1.00
8565;DHT22;4320;51.498;6.556;2024-01-16T13:03:46;4.80;1.00
8565;DHT22;4320;51.498;6.556;2024-01-16T13:06:17;4.90;1.00
8565;DHT22;4320;51.498;6.556;2024-01-16T13:08:44;4.70;1.00
8565;DHT22;4320;51.498;6.556;2024-01-16T13:11:09;4.80;1.00
8565;DHT22;4320;51.498;6.556;2024-01-16T13:13:35;5.00;1.00
8565;DHT22;4320;51.498;6.556;2024-01-16T13:16:03;5.20;1.00
8565;DHT22;4320;51.498;6.556;2024-01-16T13:18:32;5.30;1.00
8565;DHT22;4320;51.498;6.556;2024-01-16T13:20:59;5.40;1.00
8565;DHT22;4320;51.498;6.556;2024-01-16T13:23:26;5.50;1.00
8565;DHT22;4320;51.498;6.556;2024-01-16T13:25:52;5.20;1.00
8565;DHT22;4320;51.498;6.556;2024-01-16T13:28:19;4.90;1.00
8565;DHT22;4320;51.498;6.556;2024-01-16T13:30:46;4.80;1.00
8565;DHT22;4320;51.498;6.556;2024-01-16T13:33:13;4.90;1.00
8565;DHT22;4320;51.498;6.556;2024-01-16T13:35:44;5.00;1.00
8565;DHT22;4320;51.498;6.556;2024-01-16T13:38:12;5.10;1.00
8565;DHT22;4320;51.498;6.556;2024-01-16T13:40:38;5.00;1.00
8565;DHT22;4320;51.498;6.556;2024-01-16T13:43:04;5.10;1.00
8565;DHT22;4320;51.498;6.556;2024-01-16T13:45:32;4.90;1.00
8565;DHT22;4320;51.498;6.556;2024-01-16T13:47:57;4.80;1.00
8565;DHT22;4320;51.498;6.556;2024-01-16T13:50:23;4.80;1.00
8565;DHT22;4320;51.498;6.556;2024-01-16T13:52:49;4.80;1.00
8565;DHT22;4320;51.498;6.556;2024-01-16T13:55:15;4.60;1.00
8565;DHT22;4320;51.498;6.556;2024-01-16T13:57:41;4.50;1.00
8565;DHT22;4320;51.498;6.556;2024-01-16T14:00:08;4.10;1.00
8565;DHT22;4320;51.498;6.556;2024-01-16T14:02:39;4.10;1.00
8565;DHT22;4320;51.498;6.556;2024-01-16T14:05:09;4.20;1.00
8565;DHT22;4320;51.498;6.556;2024-01-16T14:07:41;4.30;1.00
8565;DHT22;4320;51.498;6.556;2024-01-16T14:10:10;4.20;1.00
8565;DHT22;4320;51.498;6.556;2024-01-16T14:12:40;4.30;1.00
8565;DHT22;4320;51.498;6.556;2024-01-16T14:15:14;4.20;1.00
8565;DHT22;4320;51.498;6.556;2024-01-16T14:17:55;4.00;1.00
8565;DHT22;4320;51.498;6.556;2024-01-16T14:20:22;4.00;1.00
8565;DHT22;4320;51.498;6.556;2024-01-16T14:22:50;4.00;1.00
8565;DHT22;4320;51.498;6.556;2024-01-16T14:25:15;4.00;1.00
8565;DHT22;4320;51.498;6.556;2024-01-16T14:27:45;3.80;1.00
8565;DHT22;4320;51.498;6.556;2024-01-16T14:30:13;3.70;1.00
8565;DHT22;4320;51.498;6.556;2024-01-16T14:32:44;3.60;1.00
8565;DHT22;4320;51.498;6.556;2024-01-16T14:35:12;3.80;1.00
8565;DHT22;4320;51.498;6.556;2024-01-16T14:37:38;3.90;1.00
8565;DHT22;4320;51.498;6.556;2024-01-16T14:40:05;4.00;1.00
8565;DHT22;4320;51.498;6.556;2024-01-16T14:42:51;4.00;1.00
8565;DHT22;4320;51.498;6.556;2024-01-16T14:45:19;3.90;1.00
8565;DHT22;4320;51.498;6.556;2024-01-16T14:47:45;3.80;1.00
8565;DHT22;4320;51.498;6.556;2024-01-16T14:50:11;3.70;1.00
8565;DHT22;4320;51.498;6.556;2024-01-16T14:52:38;3.80;1.00
8565;DHT22;4320;51.498;6.556;2024-01-16T14:55:06;3.70;1.00
8565;DHT22;4320;51.498;6.556;2024-01-16T14:57:34;3.60;1.00
8565;DHT22;4320;51.498;6.556;2024-01-16T15:00:11;3.60;1.00
8565;DHT22;4320;51.498;6.556;2024-01-16T15:02:49;3.50;1.00
8565;DHT22;4320;51.498;6.556;2024-01-16T15:05:18;3.40;1.00
8565;DHT22;4320;51.498;6.556;2024-01-16T15:07:47;3.60;1.00
8565;DHT22;4320;51.498;6.556;2024-01-16T15:10:13;3.50;1.00
8565;DHT22;4320;51.498;6.556;2024-01-16T15:12:42;3.40;1.00
8565;DHT22;4320;51.498;6.556;2024-01-16T15:15:09;3.50;1.00
8565;DHT22;4320;51.498;6.556;2024-01-16T15:17:36;3.50;1.00
8565;DHT22;4320;51.498;6.556;2024-01-16T15:20:02;3.50;1.00
8565;DHT22;4320;51.498;6.556;2024-01-16T15:22:29;3.40;1.00
8565;DHT22;4320;51.498;6.556;2024-01-16T15:24:57;3.40;1.00
8565;DHT22;4320;51.498;6.556;2024-01-16T15:27:22;3.40;1.00
8565;DHT22;4320;51.498;6.556;2024-01-16T15:29:48;3.30;1.00
8565;DHT22;4320;51.498;6.556;2024-01-16T15:32:14;3.30;1.00
8565;DHT22;4320;51.498;6.556;2024-01-16T15:34:40;3.30;1.00
8565;DHT22;4320;51.498;6.556;2024-01-16T15:37:06;3.30;1.00
8565;DHT22;4320;51.498;6.556;2024-01-16T15:39:32;3.30;1.00
8565;DHT22;4320;51.498;6.556;2024-01-16T15:41:58;3.30;1.00
8565;DHT22;4320;51.498;6.556;2024-01-16T15:44:23;3.30;1.00
8565;DHT22;4320;51.498;6.556;2024-01-16T15:49:27;3.10;1.00
8565;DHT22;4320;51.498;6.556;2024-01-16T15:51:55;3.10;1.00
8565;DHT22;4320;51.498;6.556;2024-01-16T15:54:21;3.10;1.00
8565;DHT22;4320;51.498;6.556;2024-01-16T15:56:47;3.20;1.00
8565;DHT22;4320;51.498;6.556;2024-01-16T15:59:13;3.10;1.00
8565;DHT22;4320;51.498;6.556;2024-01-16T16:01:39;3.00;1.00
8565;DHT22;4320;51.498;6.556;2024-01-16T16:04:06;3.00;1.00
8565;DHT22;4320;51.498;6.556;2024-01-16T16:06:35;3.00;1.00
8565;DHT22;4320;51.498;6.556;2024-01-16T16:09:02;3.00;1.00
8565;DHT22;4320;51.498;6.556;2024-01-16T16:11:27;2.90;1.00
8565;DHT22;4320;51.498;6.556;2024-01-16T16:13:53;2.90;1.00
8565;DHT22;4320;51.498;6.556;2024-01-16T16:16:19;2.90;1.00
8565;DHT22;4320;51.498;6.556;2024-01-16T16:18:44;2.80;1.00
8565;DHT22;4320;51.498;6.556;2024-01-16T16:21:11;2.70;1.00
8565;DHT22;4320;51.498;6.556;2024-01-16T16:23:37;2.70;1.00
8565;DHT22;4320;51.498;6.556;2024-01-16T16:26:02;2.70;1.00
8565;DHT22;4320;51.498;6.556;2024-01-16T16:28:28;2.70;1.00
8565;DHT22;4320;51.498;6.556;2024-01-16T16:30:53;2.70;1.00
8565;DHT22;4320;51.498;6.556;2024-01-16T16:33:20;2.70;1.00
8565;DHT22;4320;51.498;6.556;2024-01-16T16:35:45;2.60;1.00
8565;DHT22;4320;51.498;6.556;2024-01-16T16:38:11;2.60;1.00
8565;DHT22;4320;51.498;6.556;2024-01-16T16:40:37;2.60;1.00
8565;DHT22;4320;51.498;6.556;2024-01-16T16:43:03;2.60;1.00
8565;DHT22;4320;51.498;6.556;2024-01-16T16:45:32;2.60;1.00